Time;durP1;ratioP1;P1;durP2;ratioP2;P2;SDS_P1;SDS_P2;PMS_P1;PMS_P2;Temp;Humidity;BMP_temperature;BMP_pressure;BME280_temperature;BME280_humidity;BME280_pressure;Samples;Min_cycle;Max_cycle;Signal;HPM_P1;HPM_P2
2023/07/09 00:01:51;;;;;;;93.82;56.78;;;23.70;68.20;;;;;;4976270;28;91805;-44
2023/07/09 00:04:17;;;;;;;93.25;56.95;;;23.70;67.20;;;;;;4981814;28;90440;-44
2023/07/09 00:06:44;;;;;;;94.43;57.65;;;23.70;67.40;;;;;;4978551;28;89478;-43
2023/07/09 00:09:14;;;;;;;93.55;57.03;;;23.70;68.40;;;;;;4978984;28;89897;-41
2023/07/09 00:11:41;;;;;;;94.18;57.03;;;23.60;67.90;;;;;;4979014;28;88859;-42
2023/07/09 00:14:08;;;;;;;94.25;56.95;;;23.60;68.10;;;;;;4981779;28;89652;-42
2023/07/09 00:16:36;;;;;;;93.00;56.85;;;23.60;67.70;;;;;;4979350;28;89519;-43
2023/07/09 00:19:03;;;;;;;95.10;56.95;;;23.60;67.80;;;;;;4976831;28;93237;-42
2023/07/09 00:21:33;;;;;;;93.72;56.72;;;23.60;67.80;;;;;;4986162;28;89547;-42
2023/07/09 00:24:04;;;;;;;92.38;57.13;;;23.60;69.30;;;;;;4984906;28;90310;-42
2023/07/09 00:26:32;;;;;;;93.78;56.67;;;23.60;68.30;;;;;;4980367;28;90950;-43
2023/07/09 00:28:58;;;;;;;92.95;57.63;;;23.60;67.90;;;;;;4969367;28;89547;-45
2023/07/09 00:31:24;;;;;;;94.53;58.38;;;23.60;67.90;;;;;;4976436;28;89630;-45
2023/07/09 00:33:50;;;;;;;96.80;58.53;;;23.60;68.20;;;;;;4984687;28;89481;-44
2023/07/09 00:36:38;;;;;;;92.57;56.90;;;23.50;68.30;;;;;;4984525;28;89638;-46
2023/07/09 00:39:04;;;;;;;94.05;57.67;;;23.50;69.40;;;;;;4979143;28;92089;-44
2023/07/09 00:41:34;;;;;;;93.68;58.25;;;23.50;68.20;;;;;;4981084;28;89638;-46
2023/07/09 00:44:20;;;;;;;92.68;56.92;;;23.50;68.40;;;;;;4981131;28;90824;-43
2023/07/09 00:46:48;;;;;;;97.65;60.63;;;23.50;69.10;;;;;;4976284;28;91659;-46
2023/07/09 00:49:25;;;;;;;93.15;57.17;;;23.50;68.40;;;;;;4982234;28;89611;-46
2023/07/09 00:51:51;;;;;;;96.22;59.05;;;23.50;69.00;;;;;;4979371;28;89578;-43
2023/07/09 00:54:30;;;;;;;94.88;58.42;;;23.50;68.70;;;;;;4974890;28;90291;-43
2023/07/09 00:57:02;;;;;;;96.05;59.20;;;23.50;68.50;;;;;;4982391;28;89908;-43
2023/07/09 00:59:31;;;;;;;95.18;59.15;;;23.50;69.50;;;;;;4975996;28;89518;-43
2023/07/09 01:02:00;;;;;;;96.63;58.65;;;23.40;68.40;;;;;;4981020;28;89706;-45
2023/07/09 01:04:26;;;;;;;94.22;59.15;;;23.40;68.30;;;;;;4975657;28;89633;-43
2023/07/09 01:06:54;;;;;;;95.38;59.58;;;23.40;68.50;;;;;;4978610;28;89795;-43
2023/07/09 01:09:21;;;;;;;95.13;58.83;;;23.30;68.70;;;;;;4974974;28;96427;-46
2023/07/09 01:11:47;;;;;;;101.25;63.38;;;23.40;68.30;;;;;;4980798;28;89819;-43
2023/07/09 01:14:19;;;;;;;96.22;60.47;;;23.30;68.40;;;;;;4979846;28;90130;-42
2023/07/09 01:16:49;;;;;;;97.57;61.28;;;23.30;68.60;;;;;;4977024;28;89523;-46
2023/07/09 01:19:16;;;;;;;95.30;60.20;;;23.30;68.70;;;;;;4979255;28;92157;-43
2023/07/09 01:21:42;;;;;;;95.40;59.13;;;23.30;69.70;;;;;;4984255;28;89982;-42
2023/07/09 01:24:15;;;;;;;101.63;63.10;;;23.30;68.70;;;;;;4978097;28;89945;-44
2023/07/09 01:26:43;;;;;;;94.68;58.65;;;23.30;68.90;;;;;;4981692;28;90111;-43
2023/07/09 01:29:09;;;;;;;95.63;59.70;;;23.20;69.00;;;;;;4972938;28;90023;-42
2023/07/09 01:31:35;;;;;;;99.53;62.28;;;23.20;68.70;;;;;;4972997;28;89913;-44
2023/07/09 01:34:01;;;;;;;100.45;63.13;;;23.20;68.80;;;;;;4960284;28;92999;-42
2023/07/09 01:36:28;;;;;;;96.47;61.30;;;23.20;68.70;;;;;;4978141;28;90587;-42
2023/07/09 01:38:53;;;;;;;98.03;61.47;;;23.20;68.80;;;;;;4979720;28;90792;-42
2023/07/09 01:41:19;;;;;;;103.03;66.80;;;23.10;69.50;;;;;;4982255;28;91417;-42
2023/07/09 01:43:46;;;;;;;102.10;65.07;;;23.10;69.00;;;;;;4973158;28;89520;-41
2023/07/09 01:46:12;;;;;;;99.82;63.33;;;23.10;69.00;;;;;;4976219;28;89862;-41
2023/07/09 01:48:41;;;;;;;99.63;62.40;;;23.10;69.10;;;;;;4985562;28;89918;-43
2023/07/09 01:51:10;;;;;;;96.22;60.05;;;23.10;69.30;;;;;;4982156;28;88689;-42
2023/07/09 01:53:37;;;;;;;103.72;66.40;;;23.10;69.50;;;;;;4980687;28;89513;-42
2023/07/09 01:56:03;;;;;;;99.55;62.55;;;23.00;69.30;;;;;;4983680;28;90065;-42
2023/07/09 01:58:31;;;;;;;99.78;63.53;;;23.00;69.20;;;;;;4979046;28;90505;-44
2023/07/09 02:00:57;;;;;;;100.43;62.70;;;23.00;69.50;;;;;;4979224;28;89827;-42
2023/07/09 02:03:24;;;;;;;99.30;62.45;;;23.00;69.30;;;;;;4978327;28;90130;-43
2023/07/09 02:05:52;;;;;;;103.35;66.65;;;22.90;69.30;;;;;;4979058;28;89761;-42
2023/07/09 02:08:18;;;;;;;97.55;59.85;;;22.90;69.40;;;;;;4977717;28;90712;-42
2023/07/09 02:10:45;;;;;;;101.53;63.63;;;22.90;69.60;;;;;;4982710;28;89881;-42
2023/07/09 02:13:10;;;;;;;102.05;64.25;;;22.90;69.50;;;;;;4982816;28;91026;-42
2023/07/09 02:15:36;;;;;;;98.20;62.80;;;22.90;69.90;;;;;;4985478;28;90193;-41
2023/07/09 02:18:02;;;;;;;101.35;61.88;;;22.90;70.00;;;;;;4984455;28;89967;-44
2023/07/09 02:20:28;;;;;;;96.40;60.55;;;22.80;69.90;;;;;;4985781;28;90324;-43
2023/07/09 02:22:54;;;;;;;101.13;63.38;;;22.80;69.90;;;;;;4980932;28;91018;-41
2023/07/09 02:25:19;;;;;;;96.68;59.45;;;22.80;69.80;;;;;;4986199;28;90193;-43
2023/07/09 02:27:45;;;;;;;97.97;61.85;;;22.80;70.70;;;;;;4979226;28;93271;-44
2023/07/09 02:30:11;;;;;;;98.00;59.30;;;22.70;69.70;;;;;;4983612;28;90221;-43
2023/07/09 02:32:37;;;;;;;95.78;59.70;;;22.70;69.80;;;;;;4973000;28;91201;-44
2023/07/09 02:35:04;;;;;;;95.32;59.80;;;22.70;70.00;;;;;;4981076;28;90176;-48
2023/07/09 02:37:30;;;;;;;99.75;61.33;;;22.70;69.80;;;;;;4983335;28;89353;-45
2023/07/09 02:39:55;;;;;;;97.65;59.85;;;22.70;70.20;;;;;;4989933;28;92448;-43
2023/07/09 02:42:22;;;;;;;99.93;62.83;;;22.70;70.30;;;;;;4977138;28;90489;-43
2023/07/09 02:44:48;;;;;;;101.82;65.88;;;22.60;70.00;;;;;;4977981;28;89853;-46
2023/07/09 02:47:14;;;;;;;105.10;68.03;;;22.60;70.00;;;;;;4962199;28;90534;-47
2023/07/09 02:49:40;;;;;;;99.32;62.85;;;22.60;70.20;;;;;;4985894;28;89902;-43
2023/07/09 02:52:07;;;;;;;98.43;61.53;;;22.60;70.30;;;;;;4984683;28;89770;-45
2023/07/09 02:54:33;;;;;;;98.63;59.90;;;22.50;70.20;;;;;;4986586;28;92671;-45
2023/07/09 02:56:58;;;;;;;98.55;63.28;;;22.50;70.30;;;;;;4979043;28;92297;-43
2023/07/09 02:59:25;;;;;;;100.20;63.40;;;22.50;70.30;;;;;;4982514;28;89731;-44
2023/07/09 03:01:52;;;;;;;103.80;66.63;;;22.50;70.20;;;;;;4981549;28;90009;-46
2023/07/09 03:04:20;;;;;;;99.80;62.55;;;22.50;70.40;;;;;;4984123;28;93855;-45
2023/07/09 03:06:45;;;;;;;97.38;62.05;;;22.40;70.30;;;;;;4986928;28;90064;-43
2023/07/09 03:09:11;;;;;;;101.60;64.53;;;22.40;70.40;;;;;;4984127;28;89507;-45
2023/07/09 03:11:37;;;;;;;101.68;64.40;;;22.40;70.50;;;;;;4984706;28;91125;-43
2023/07/09 03:14:03;;;;;;;101.18;63.33;;;22.40;70.40;;;;;;4980848;28;90459;-44
2023/07/09 03:16:32;;;;;;;98.60;62.00;;;22.40;70.40;;;;;;4976868;28;89594;-45
2023/07/09 03:18:58;;;;;;;100.60;63.67;;;22.40;70.50;;;;;;4985432;28;90471;-45
2023/07/09 03:21:26;;;;;;;102.97;64.75;;;22.30;70.40;;;;;;4982297;28;90414;-45
2023/07/09 03:23:52;;;;;;;99.40;62.33;;;22.30;70.50;;;;;;4982502;28;92663;-44
2023/07/09 03:26:18;;;;;;;101.60;64.13;;;22.30;70.60;;;;;;4980465;28;89439;-46
2023/07/09 03:28:44;;;;;;;95.90;60.40;;;22.30;70.60;;;;;;4987644;28;89561;-44
2023/07/09 03:31:09;;;;;;;100.45;63.83;;;22.30;70.70;;;;;;4964998;28;89945;-44
2023/07/09 03:33:35;;;;;;;96.88;59.20;;;22.30;70.80;;;;;;4976926;28;92785;-46
2023/07/09 03:36:01;;;;;;;96.53;60.13;;;22.30;71.40;;;;;;4976771;28;91455;-44
2023/07/09 03:38:26;;;;;;;98.07;61.42;;;22.20;71.20;;;;;;4986054;28;90027;-41
2023/07/09 03:40:55;;;;;;;100.35;62.97;;;22.20;71.00;;;;;;4983194;28;90585;-42
2023/07/09 03:43:22;;;;;;;98.40;61.58;;;22.20;71.00;;;;;;4978457;28;89655;-44
2023/07/09 03:45:48;;;;;;;94.63;59.80;;;22.20;71.00;;;;;;4977556;28;94219;-42
2023/07/09 03:48:15;;;;;;;96.30;59.13;;;22.20;71.40;;;;;;4971291;28;91515;-42
2023/07/09 03:50:43;;;;;;;94.95;59.78;;;22.20;71.50;;;;;;4974520;28;90162;-41
2023/07/09 03:53:09;;;;;;;97.68;60.10;;;22.20;71.10;;;;;;4981049;28;89095;-42
2023/07/09 03:55:34;;;;;;;94.10;58.75;;;22.10;71.90;;;;;;4980209;28;89662;-42
2023/07/09 03:58:02;;;;;;;95.68;59.08;;;22.10;71.80;;;;;;4956317;28;90104;-44
2023/07/09 04:00:28;;;;;;;96.07;60.50;;;22.10;71.40;;;;;;4976262;28;91055;-45
2023/07/09 04:02:55;;;;;;;99.05;61.90;;;22.10;70.90;;;;;;4978732;28;91475;-46
2023/07/09 04:05:20;;;;;;;98.80;61.40;;;22.10;71.20;;;;;;4958084;28;91371;-44
2023/07/09 04:07:46;;;;;;;98.88;62.10;;;22.10;71.10;;;;;;4976315;28;90032;-45
2023/07/09 04:10:11;;;;;;;99.68;62.50;;;22.10;71.20;;;;;;4976966;28;91047;-44
2023/07/09 04:12:37;;;;;;;101.82;63.95;;;22.10;71.10;;;;;;4971278;28;89903;-44
2023/07/09 04:15:04;;;;;;;101.07;64.55;;;22.00;71.30;;;;;;4981244;28;94487;-44
2023/07/09 04:17:29;;;;;;;98.03;62.05;;;22.10;71.30;;;;;;4979652;28;88800;-45
2023/07/09 04:19:55;;;;;;;101.45;62.97;;;22.10;71.30;;;;;;4977812;28;91881;-43
2023/07/09 04:22:21;;;;;;;98.60;62.17;;;22.10;71.20;;;;;;4976437;28;89771;-44
2023/07/09 04:24:47;;;;;;;99.72;62.90;;;22.00;71.90;;;;;;4976009;28;93500;-44
2023/07/09 04:27:13;;;;;;;98.63;61.50;;;22.10;71.00;;;;;;4980347;28;90740;-43
2023/07/09 04:29:40;;;;;;;99.65;63.08;;;22.10;71.10;;;;;;4977950;28;90023;-43
2023/07/09 04:32:07;;;;;;;97.38;61.05;;;22.10;71.10;;;;;;4958815;28;91580;-43
2023/07/09 04:34:32;;;;;;;101.78;64.90;;;22.10;71.40;;;;;;4980458;28;89785;-43
2023/07/09 04:36:58;;;;;;;100.97;64.53;;;22.10;70.90;;;;;;4982620;28;91918;-45
2023/07/09 04:39:24;;;;;;;100.35;63.88;;;22.10;70.80;;;;;;4970120;28;90231;-44
2023/07/09 04:41:49;;;;;;;100.85;63.70;;;22.10;70.90;;;;;;4981155;28;89156;-46
2023/07/09 04:44:15;;;;;;;95.28;59.55;;;22.10;71.00;;;;;;4976964;28;89706;-45
2023/07/09 04:46:41;;;;;;;96.50;60.05;;;22.10;71.10;;;;;;4971278;28;90504;-43
2023/07/09 04:49:07;;;;;;;97.05;61.28;;;22.10;71.20;;;;;;4978589;28;94122;-42
2023/07/09 04:51:33;;;;;;;101.47;62.85;;;22.10;71.10;;;;;;4983326;28;90138;-43
2023/07/09 04:54:03;;;;;;;98.93;62.15;;;22.10;70.70;;;;;;4981744;28;89449;-42
2023/07/09 04:56:30;;;;;;;97.18;60.45;;;22.20;70.70;;;;;;4980403;28;89931;-43
2023/07/09 04:58:56;;;;;;;97.72;61.05;;;22.20;70.40;;;;;;4978191;28;91534;-41
2023/07/09 05:01:22;;;;;;;96.22;60.47;;;22.20;70.70;;;;;;4965705;28;90302;-42
2023/07/09 05:03:47;;;;;;;96.40;59.45;;;22.20;70.50;;;;;;4972434;28;90085;-42
2023/07/09 05:06:14;;;;;;;100.60;62.90;;;22.20;70.60;;;;;;4978098;28;89164;-43
2023/07/09 05:08:42;;;;;;;100.28;62.22;;;22.30;70.40;;;;;;4983899;28;89394;-44
2023/07/09 05:11:10;;;;;;;95.55;59.97;;;22.30;70.20;;;;;;4984930;28;90458;-46
2023/07/09 05:13:36;;;;;;;97.13;60.80;;;22.30;70.30;;;;;;4981486;28;91078;-48
2023/07/09 05:16:02;;;;;;;93.80;58.17;;;22.30;70.30;;;;;;4979726;28;89544;-43
2023/07/09 05:18:27;;;;;;;98.05;61.47;;;22.30;71.00;;;;;;4978742;28;89423;-44
2023/07/09 05:20:53;;;;;;;98.68;61.53;;;22.40;70.20;;;;;;4981299;28;89768;-44
2023/07/09 05:23:18;;;;;;;94.32;58.83;;;22.40;70.00;;;;;;4970606;28;89521;-44
2023/07/09 05:25:44;;;;;;;97.63;61.17;;;22.40;70.70;;;;;;4983248;28;89749;-45
2023/07/09 05:28:10;;;;;;;99.35;62.42;;;22.40;69.70;;;;;;4990251;28;90673;-45
2023/07/09 05:30:35;;;;;;;96.53;60.35;;;22.40;69.90;;;;;;4982430;28;89368;-46
2023/07/09 05:33:01;;;;;;;94.57;58.45;;;22.50;69.80;;;;;;4976964;28;89884;-43
2023/07/09 05:35:27;;;;;;;96.28;60.47;;;22.50;70.10;;;;;;4990539;28;89689;-44
2023/07/09 05:37:55;;;;;;;94.28;58.78;;;22.50;69.70;;;;;;4983421;28;91294;-43
2023/07/09 05:40:21;;;;;;;99.95;61.38;;;22.60;70.20;;;;;;4968718;28;90960;-44
2023/07/09 05:42:48;;;;;;;98.25;61.47;;;22.60;69.20;;;;;;4978028;28;90772;-43
2023/07/09 05:45:15;;;;;;;95.47;58.80;;;22.60;69.90;;;;;;4982856;28;89520;-46
2023/07/09 05:47:41;;;;;;;93.93;57.70;;;22.70;69.50;;;;;;4972723;28;89405;-45
2023/07/09 05:50:07;;;;;;;93.38;57.85;;;22.70;71.50;;;;;;4983417;28;94998;-46
2023/07/09 05:52:33;;;;;;;95.15;59.00;;;22.70;70.30;;;;;;4981422;28;89533;-43
2023/07/09 05:54:59;;;;;;;94.25;58.78;;;22.80;69.30;;;;;;4984535;28;88626;-44
2023/07/09 05:57:25;;;;;;;97.43;61.22;;;22.80;69.30;;;;;;4982245;28;89749;-46
2023/07/09 05:59:51;;;;;;;97.35;60.53;;;22.80;68.70;;;;;;4974748;28;90831;-45
2023/07/09 06:02:19;;;;;;;97.75;60.67;;;22.90;68.70;;;;;;4980207;28;90998;-45
2023/07/09 06:04:45;;;;;;;97.20;60.83;;;22.90;69.00;;;;;;4981972;28;90020;-45
2023/07/09 06:07:13;;;;;;;97.60;60.10;;;22.90;69.20;;;;;;4977668;28;90150;-44
2023/07/09 06:09:39;;;;;;;97.50;60.63;;;23.00;69.20;;;;;;4978338;28;90394;-45
2023/07/09 06:12:06;;;;;;;96.43;60.40;;;23.00;68.50;;;;;;4989192;28;92386;-45
2023/07/09 06:14:32;;;;;;;96.30;59.78;;;23.10;68.60;;;;;;4990112;28;90110;-43
2023/07/09 06:16:59;;;;;;;101.22;61.53;;;23.10;68.90;;;;;;4990500;28;90190;-43
2023/07/09 06:19:25;;;;;;;94.60;58.97;;;23.20;68.20;;;;;;4980436;28;92813;-44
2023/07/09 06:21:50;;;;;;;98.60;60.60;;;23.20;67.90;;;;;;4987972;28;89944;-47
2023/07/09 06:24:16;;;;;;;95.88;59.33;;;23.30;67.80;;;;;;4982198;28;92213;-46
2023/07/09 06:26:41;;;;;;;97.35;60.08;;;23.30;67.60;;;;;;4982799;28;90993;-45
2023/07/09 06:29:07;;;;;;;97.88;60.83;;;23.40;67.70;;;;;;4981951;28;89533;-44
2023/07/09 06:31:33;;;;;;;96.35;60.42;;;23.40;67.70;;;;;;4978462;28;89500;-43
2023/07/09 06:33:58;;;;;;;94.28;58.63;;;23.50;67.50;;;;;;4976403;28;89826;-43
2023/07/09 06:36:24;;;;;;;97.43;59.83;;;23.50;68.80;;;;;;4981940;28;92165;-45
2023/07/09 06:38:50;;;;;;;95.45;59.05;;;23.60;67.80;;;;;;4986521;28;89547;-44
2023/07/09 06:41:16;;;;;;;99.20;60.85;;;23.60;67.50;;;;;;4986193;28;90009;-44
2023/07/09 06:43:42;;;;;;;96.18;59.08;;;23.60;67.50;;;;;;4986444;28;89386;-43
2023/07/09 06:46:11;;;;;;;94.57;58.65;;;23.70;67.50;;;;;;4974979;28;90048;-44
2023/07/09 06:48:36;;;;;;;98.75;61.15;;;23.70;67.50;;;;;;4976429;28;90067;-43
2023/07/09 06:51:02;;;;;;;96.90;60.08;;;23.70;67.50;;;;;;4983226;28;91023;-45
2023/07/09 06:53:29;;;;;;;98.13;60.13;;;23.80;67.90;;;;;;4985381;28;89973;-48
2023/07/09 06:55:58;;;;;;;95.68;59.08;;;23.80;67.60;;;;;;4987705;28;90296;-45
2023/07/09 06:58:27;;;;;;;99.30;59.72;;;23.80;67.40;;;;;;4982353;28;93279;-45
2023/07/09 07:00:53;;;;;;;94.65;58.10;;;23.90;67.40;;;;;;4979706;28;90980;-44
2023/07/09 07:03:19;;;;;;;96.88;58.95;;;23.90;67.70;;;;;;4982974;28;90004;-46
2023/07/09 07:05:45;;;;;;;96.05;59.38;;;24.00;67.30;;;;;;4986083;28;90487;-48
2023/07/09 07:08:15;;;;;;;95.55;59.00;;;24.00;67.20;;;;;;4980191;28;89945;-44
2023/07/09 07:10:40;;;;;;;94.97;58.97;;;24.00;67.50;;;;;;4978903;28;89896;-43
2023/07/09 07:13:06;;;;;;;93.30;57.55;;;24.00;67.10;;;;;;4982311;28;90437;-43
2023/07/09 07:15:32;;;;;;;97.03;58.83;;;24.10;68.60;;;;;;4989283;28;93017;-44
2023/07/09 07:17:57;;;;;;;95.13;58.28;;;24.10;67.70;;;;;;4984306;28;91652;-46
2023/07/09 07:20:23;;;;;;;93.82;57.60;;;24.20;68.00;;;;;;4980503;28;93046;-44
2023/07/09 07:22:49;;;;;;;95.00;58.53;;;24.20;68.50;;;;;;4982291;28;89885;-46
2023/07/09 07:25:15;;;;;;;95.97;58.83;;;24.20;66.60;;;;;;4976709;28;89651;-45
2023/07/09 07:27:41;;;;;;;95.30;58.20;;;24.20;66.60;;;;;;4983298;28;93100;-46
2023/07/09 07:30:11;;;;;;;94.25;57.65;;;24.20;66.60;;;;;;4987005;28;90187;-42
2023/07/09 07:32:44;;;;;;;92.75;57.53;;;24.30;66.70;;;;;;4976285;28;88392;-46
2023/07/09 07:35:10;;;;;;;95.20;57.58;;;24.30;67.80;;;;;;4973701;28;90737;-46
2023/07/09 07:37:36;;;;;;;95.45;57.95;;;24.40;66.80;;;;;;4986248;28;89974;-45
2023/07/09 07:40:01;;;;;;;94.82;58.03;;;24.40;66.40;;;;;;4981678;28;92492;-43
2023/07/09 07:42:27;;;;;;;94.72;57.92;;;24.40;66.50;;;;;;4971805;28;93801;-44
2023/07/09 07:44:53;;;;;;;93.78;57.65;;;24.40;66.40;;;;;;4977989;28;91331;-45
2023/07/09 07:47:19;;;;;;;94.13;57.58;;;24.50;66.90;;;;;;4980738;28;90405;-46
2023/07/09 07:49:44;;;;;;;94.10;57.90;;;24.50;66.30;;;;;;4981684;28;89554;-46
2023/07/09 07:52:10;;;;;;;95.40;58.15;;;24.50;66.00;;;;;;4964527;28;90323;-46
2023/07/09 07:54:37;;;;;;;94.20;57.92;;;24.60;66.50;;;;;;4979936;28;91740;-43
2023/07/09 07:57:03;;;;;;;95.30;58.10;;;24.60;66.60;;;;;;4975747;28;89873;-44
2023/07/09 07:59:29;;;;;;;95.18;57.97;;;24.70;66.50;;;;;;4977443;28;89597;-43
2023/07/09 08:01:54;;;;;;;94.15;57.78;;;24.60;66.20;;;;;;4981660;28;89925;-45
2023/07/09 08:04:20;;;;;;;93.70;57.55;;;24.70;67.10;;;;;;4983116;28;92879;-45
2023/07/09 08:06:46;;;;;;;94.50;57.78;;;24.70;66.20;;;;;;4980141;28;91978;-45
2023/07/09 08:09:11;;;;;;;95.00;58.13;;;24.70;66.00;;;;;;4983377;28;89950;-44
2023/07/09 08:11:37;;;;;;;95.20;57.97;;;24.80;66.20;;;;;;4981286;28;89540;-44
2023/07/09 08:14:03;;;;;;;95.00;57.90;;;24.80;66.30;;;;;;4980140;28;89926;-45
2023/07/09 08:16:29;;;;;;;95.88;58.13;;;24.80;66.10;;;;;;4988658;28;90122;-46
2023/07/09 08:18:55;;;;;;;94.50;57.40;;;24.80;66.70;;;;;;4972646;28;93213;-44
2023/07/09 08:21:21;;;;;;;94.03;57.72;;;24.90;66.00;;;;;;4980173;28;90040;-42
2023/07/09 08:23:46;;;;;;;93.88;58.13;;;25.00;66.00;;;;;;4983426;28;90103;-42
2023/07/09 08:26:12;;;;;;;94.15;57.75;;;25.00;65.60;;;;;;4972610;28;89890;-42
2023/07/09 08:28:38;;;;;;;94.85;57.67;;;25.00;65.60;;;;;;4973622;28;91470;-43
2023/07/09 08:31:04;;;;;;;94.05;57.58;;;25.10;66.00;;;;;;4981915;28;89591;-42
2023/07/09 08:33:30;;;;;;;94.65;58.05;;;25.10;65.50;;;;;;4986122;28;89797;-45
2023/07/09 08:35:55;;;;;;;95.05;58.05;;;25.20;65.40;;;;;;4978374;28;89965;-43
2023/07/09 08:38:22;;;;;;;96.75;58.05;;;25.20;65.40;;;;;;4980324;28;89827;-43
2023/07/09 08:41:14;;;;;;;97.15;58.28;;;25.30;65.40;;;;;;4984109;28;89508;-42
2023/07/09 08:44:11;;;;;;;95.55;57.88;;;25.30;65.20;;;;;;4950831;28;91648;-42
2023/07/09 08:46:59;;;;;;;95.30;58.25;;;25.40;65.30;;;;;;4980313;28;93765;-42
2023/07/09 08:49:52;;;;;;;95.88;58.05;;;25.50;65.10;;;;;;4980710;28;89421;-42
2023/07/09 08:52:37;;;;;;;94.72;58.20;;;25.60;64.70;;;;;;4943746;28;89946;-44
2023/07/09 08:55:26;;;;;;;95.47;58.63;;;25.60;63.80;;;;;;4977966;28;91949;-42
2023/07/09 08:58:09;;;;;;;95.05;58.35;;;25.80;64.30;;;;;;4974468;28;90655;-43
2023/07/09 09:00:54;;;;;;;96.13;58.25;;;25.80;62.80;;;;;;4981199;28;90596;-43
2023/07/09 09:03:46;;;;;;;95.63;58.28;;;25.90;63.40;;;;;;4983861;28;89419;-42
2023/07/09 09:06:14;;;;;;;95.15;57.95;;;25.90;63.80;;;;;;4978075;28;90228;-44
2023/07/09 09:08:47;;;;;;;95.80;58.55;;;26.00;63.90;;;;;;4986926;28;91657;-43
2023/07/09 09:11:15;;;;;;;95.78;58.45;;;26.00;64.00;;;;;;4973689;28;89700;-42
2023/07/09 09:13:43;;;;;;;97.75;58.47;;;26.10;61.60;;;;;;4984354;28;92176;-43
2023/07/09 09:16:22;;;;;;;99.38;58.70;;;26.10;61.90;;;;;;4986800;28;89699;-43
2023/07/09 09:18:49;;;;;;;95.18;57.92;;;26.10;62.70;;;;;;4975689;28;90015;-43
2023/07/09 09:21:24;;;;;;;95.88;58.63;;;26.10;63.00;;;;;;4974448;28;90824;-43
2023/07/09 09:23:56;;;;;;;94.63;57.60;;;26.10;62.60;;;;;;4978568;28;89489;-42
2023/07/09 09:26:33;;;;;;;94.97;58.10;;;26.10;63.80;;;;;;4978340;28;91806;-42
2023/07/09 09:28:59;;;;;;;95.30;58.22;;;26.00;61.50;;;;;;4983119;28;89982;-43
2023/07/09 09:31:27;;;;;;;98.30;58.42;;;26.00;61.70;;;;;;4980661;28;89303;-44
2023/07/09 09:33:53;;;;;;;95.15;57.88;;;26.00;61.50;;;;;;4974595;28;89749;-42
2023/07/09 09:36:26;;;;;;;95.38;58.17;;;25.90;62.50;;;;;;4978346;28;93650;-43
2023/07/09 09:38:52;;;;;;;95.07;57.90;;;26.00;61.80;;;;;;4972828;28;89524;-42
2023/07/09 09:41:29;;;;;;;95.05;58.20;;;25.90;61.90;;;;;;4975301;28;91497;-41
2023/07/09 09:43:56;;;;;;;96.28;58.13;;;25.90;61.70;;;;;;4975853;28;90209;-42
2023/07/09 09:46:26;;;;;;;96.68;58.35;;;25.90;61.50;;;;;;4970178;28;94901;-41
2023/07/09 09:48:58;;;;;;;99.00;58.20;;;25.80;61.90;;;;;;4978226;28;91275;-46
2023/07/09 09:51:24;;;;;;;95.85;58.33;;;25.80;61.70;;;;;;4974318;28;89639;-45
2023/07/09 09:53:58;;;;;;;95.78;58.08;;;25.80;61.80;;;;;;4979923;28;89479;-45
2023/07/09 09:56:31;;;;;;;98.80;58.35;;;25.80;62.20;;;;;;4976927;28;93552;-45
2023/07/09 09:58:57;;;;;;;98.43;59.15;;;25.80;62.50;;;;;;4973456;28;94242;-45
2023/07/09 10:01:31;;;;;;;94.35;58.13;;;25.60;62.70;;;;;;4969386;28;95984;-44
2023/07/09 10:03:59;;;;;;;95.35;58.55;;;25.60;63.10;;;;;;4977494;28;88824;-43
2023/07/09 10:06:39;;;;;;;95.32;58.42;;;25.40;64.00;;;;;;4967080;28;89639;-45
2023/07/09 10:09:20;;;;;;;95.32;58.42;;;25.40;64.70;;;;;;4978761;28;95234;-44
2023/07/09 10:11:58;;;;;;;95.30;58.53;;;25.40;65.30;;;;;;4965558;28;94063;-44
2023/07/09 10:14:49;;;;;;;97.47;59.33;;;25.40;65.40;;;;;;4985312;28;93873;-43
2023/07/09 10:17:22;;;;;;;97.28;59.42;;;25.40;66.30;;;;;;4978612;28;89207;-44
2023/07/09 10:19:50;;;;;;;98.50;60.05;;;25.50;66.00;;;;;;4973103;28;89797;-43
2023/07/09 10:22:52;;;;;;;100.07;59.55;;;25.40;66.00;;;;;;4972983;28;90407;-46
2023/07/09 10:25:37;;;;;;;98.55;59.85;;;25.60;65.70;;;;;;4973479;28;89516;-48
2023/07/09 10:28:17;;;;;;;98.40;59.63;;;25.70;66.10;;;;;;4972420;28;89427;-45
2023/07/09 10:31:08;;;;;;;98.90;59.63;;;25.60;66.10;;;;;;4974054;28;88959;-45
2023/07/09 10:33:40;;;;;;;;;;;25.60;66.20;;;;;;4976802;28;90640;-43
2023/07/09 10:36:24;;;;;;;99.68;59.05;;;25.60;66.60;;;;;;4972734;28;90444;-44
2023/07/09 10:38:59;;;;;;;97.43;59.20;;;25.60;66.40;;;;;;4974296;28;91255;-44
2023/07/09 10:41:26;;;;;;;105.47;59.78;;;25.60;66.70;;;;;;4978338;28;90258;-45
2023/07/09 10:44:10;;;;;;;99.60;59.90;;;25.60;66.10;;;;;;4974873;28;90487;-43
2023/07/09 10:46:40;;;;;;;101.70;61.25;;;25.40;66.30;;;;;;4976696;28;89842;-45
2023/07/09 10:49:11;;;;;;;99.72;60.00;;;25.40;65.70;;;;;;4967189;28;89754;-45
2023/07/09 10:51:44;;;;;;;98.88;60.63;;;25.60;66.30;;;;;;4969312;28;90138;-47
2023/07/09 10:54:19;;;;;;;102.65;60.63;;;25.60;66.40;;;;;;4976327;28;89803;-43
2023/07/09 10:56:51;;;;;;;98.65;59.83;;;25.60;66.10;;;;;;4972596;28;93745;-45
2023/07/09 10:59:33;;;;;;;100.03;60.28;;;25.60;66.80;;;;;;4978182;28;89724;-45
2023/07/09 11:02:22;;;;;;;100.00;60.85;;;25.70;66.50;;;;;;4974813;28;89946;-45
2023/07/09 11:04:50;;;;;;;100.35;60.28;;;25.70;65.60;;;;;;4966473;28;91295;-45
2023/07/09 11:07:40;;;;;;;101.63;60.55;;;25.60;66.10;;;;;;4977553;28;90624;-44
2023/07/09 11:10:23;;;;;;;99.82;60.55;;;25.50;64.50;;;;;;4973001;28;89703;-45
2023/07/09 11:13:04;;;;;;;100.75;60.30;;;25.40;65.90;;;;;;4977362;28;89760;-44
2023/07/09 11:15:35;;;;;;;97.97;59.33;;;25.50;66.20;;;;;;4981483;28;89602;-44
2023/07/09 11:18:05;;;;;;;97.40;59.42;;;25.60;64.90;;;;;;4982945;28;90937;-45
2023/07/09 11:20:34;;;;;;;98.45;59.30;;;25.50;64.90;;;;;;4977148;28;91093;-44
2023/07/09 11:23:17;;;;;;;98.18;59.30;;;25.60;64.00;;;;;;4975122;28;90512;-43
2023/07/09 11:26:11;;;;;;;98.93;59.38;;;25.60;62.90;;;;;;4974634;28;91735;-44
2023/07/09 11:28:38;;;;;;;95.55;58.70;;;25.70;64.00;;;;;;4980749;28;89356;-43
2023/07/09 11:31:38;;;;;;;96.78;58.92;;;25.80;63.20;;;;;;4975842;28;91700;-43
2023/07/09 11:34:06;;;;;;;100.90;59.28;;;25.80;61.50;;;;;;4965010;28;89982;-43
2023/07/09 11:36:33;;;;;;;98.47;59.13;;;25.90;62.20;;;;;;4973538;28;89485;-43
2023/07/09 11:38:59;;;;;;;96.35;59.03;;;25.80;62.20;;;;;;4974144;28;89875;-44
2023/07/09 11:41:41;;;;;;;97.93;59.35;;;25.70;63.70;;;;;;4976698;28;89691;-44
2023/07/09 11:44:24;;;;;;;96.35;58.25;;;25.60;64.50;;;;;;4974789;28;89837;-43
2023/07/09 11:46:57;;;;;;;99.55;59.35;;;25.50;64.10;;;;;;4973243;28;90037;-44
2023/07/09 11:49:26;;;;;;;93.97;58.05;;;25.40;64.70;;;;;;4975563;28;89178;-44
2023/07/09 11:51:57;;;;;;;97.93;58.85;;;25.40;65.30;;;;;;4972567;28;89434;-44
2023/07/09 11:54:22;;;;;;;;;;;25.40;65.00;;;;;;4974494;28;89498;-44
2023/07/09 11:56:58;;;;;;;95.13;58.75;;;25.40;65.80;;;;;;4973584;28;90933;-45
2023/07/09 11:59:24;;;;;;;97.93;58.55;;;25.50;65.30;;;;;;4983191;28;91734;-44
2023/07/09 12:01:54;;;;;;;96.90;58.88;;;25.40;65.90;;;;;;4975253;28;92190;-44
2023/07/09 12:04:23;;;;;;;96.32;58.85;;;25.40;65.70;;;;;;4974750;28;90583;-44
2023/07/09 12:06:53;;;;;;;98.13;59.33;;;25.40;65.50;;;;;;4978118;28;90157;-43
2023/07/09 12:09:21;;;;;;;98.15;59.28;;;25.40;65.10;;;;;;4974153;28;90811;-46
2023/07/09 12:11:49;;;;;;;95.80;58.92;;;25.40;65.70;;;;;;4974126;28;90685;-44
2023/07/09 12:14:17;;;;;;;97.57;59.00;;;25.40;66.10;;;;;;4977238;28;88741;-46
2023/07/09 12:16:48;;;;;;;96.10;58.85;;;25.30;68.70;;;;;;4967255;28;90170;-46
2023/07/09 12:19:16;;;;;;;100.70;59.78;;;25.30;68.90;;;;;;4966146;28;92367;-38
2023/07/09 12:21:48;;;;;;;99.43;59.65;;;25.30;70.20;;;;;;4969209;28;94871;-41
2023/07/09 12:24:24;;;;;;;101.25;60.00;;;25.30;71.40;;;;;;4973127;28;90918;-39
2023/07/09 12:26:53;;;;;;;97.63;59.88;;;25.40;72.70;;;;;;4970577;28;91926;-40
2023/07/09 12:29:19;;;;;;;102.03;60.75;;;25.30;72.70;;;;;;4975608;28;90561;-37
2023/07/09 12:31:45;;;;;;;101.13;60.60;;;25.30;74.50;;;;;;4972056;28;90955;-39
2023/07/09 12:34:16;;;;;;;98.32;60.95;;;25.30;74.90;;;;;;4974102;28;90358;-39
2023/07/09 12:36:46;;;;;;;103.93;61.08;;;25.40;74.90;;;;;;4978446;28;89426;-37